Time;durP1;ratioP1;P1;durP2;ratioP2;P2;SDS_P1;SDS_P2;PMS_P1;PMS_P2;Temp;Humidity;BMP_temperature;BMP_pressure;BME280_temperature;BME280_humidity;BME280_pressure;Samples;Min_cycle;Max_cycle;Signal;HPM_P1;HPM_P2
2024/03/26 00:02:07;;;;;;;12.05;3.00;;;8.90;99.90;;;;;;5024085;28;20030;-69
2024/03/26 00:04:36;;;;;;;5.60;2.72;;;8.90;99.90;;;;;;5024732;28;20446;-71
2024/03/26 00:07:02;;;;;;;7.50;3.10;;;8.90;99.90;;;;;;5024569;28;20041;-69
2024/03/26 00:09:28;;;;;;;9.27;2.65;;;8.80;99.90;;;;;;5026804;28;20030;-69
2024/03/26 00:11:54;;;;;;;10.10;3.00;;;8.80;99.90;;;;;;5027580;28;20390;-69
2024/03/26 00:14:19;;;;;;;12.05;2.78;;;8.90;99.90;;;;;;5028028;28;20034;-69
2024/03/26 00:16:45;;;;;;;8.35;2.35;;;8.90;99.90;;;;;;5028354;28;20021;-69
2024/03/26 00:19:11;;;;;;;12.40;3.30;;;8.90;99.90;;;;;;5026741;28;20479;-68
2024/03/26 00:21:38;;;;;;;6.88;2.47;;;8.80;99.90;;;;;;5027266;28;20504;-69
2024/03/26 00:24:04;;;;;;;9.77;2.70;;;8.80;99.90;;;;;;5027055;28;20079;-69
2024/03/26 00:26:31;;;;;;;9.73;2.42;;;8.80;99.90;;;;;;5027804;28;20037;-68
2024/03/26 00:28:56;;;;;;;10.60;3.22;;;8.70;99.90;;;;;;5027888;28;20014;-68
2024/03/26 00:31:22;;;;;;;9.20;3.03;;;8.70;99.90;;;;;;5027124;28;20033;-69
2024/03/26 00:33:48;;;;;;;8.25;2.80;;;8.70;99.90;;;;;;5026423;28;20462;-72
2024/03/26 00:36:13;;;;;;;9.27;2.58;;;8.60;99.90;;;;;;5027343;28;20040;-70
2024/03/26 00:38:39;;;;;;;9.32;2.78;;;8.60;99.90;;;;;;5027789;28;20418;-69
2024/03/26 00:41:05;;;;;;;6.93;2.47;;;8.70;99.90;;;;;;5027383;28;20102;-72
2024/03/26 00:43:31;;;;;;;7.90;2.55;;;8.70;99.90;;;;;;5027572;28;20482;-72
2024/03/26 00:45:56;;;;;;;10.63;2.97;;;8.60;99.90;;;;;;5026619;28;20025;-70
2024/03/26 00:48:22;;;;;;;9.90;2.80;;;8.50;99.90;;;;;;5027533;28;20116;-70
2024/03/26 00:50:47;;;;;;;8.63;2.95;;;8.50;99.90;;;;;;5026216;28;20119;-69
2024/03/26 00:53:13;;;;;;;6.57;2.53;;;8.50;99.90;;;;;;5027434;28;20513;-70
2024/03/26 00:55:39;;;;;;;9.27;2.58;;;8.40;99.90;;;;;;5026500;28;20486;-69
2024/03/26 00:58:04;;;;;;;4.63;2.53;;;8.40;99.90;;;;;;5027000;28;20391;-70
2024/03/26 01:00:30;;;;;;;5.07;2.60;;;8.50;99.90;;;;;;5025486;28;20486;-69
2024/03/26 01:02:56;;;;;;;11.07;2.63;;;8.50;99.90;;;;;;5023509;28;20467;-68
2024/03/26 01:05:22;;;;;;;7.38;2.78;;;8.60;99.90;;;;;;5026407;28;20030;-68
2024/03/26 01:07:47;;;;;;;17.88;3.05;;;8.60;99.90;;;;;;5027062;28;20030;-70
2024/03/26 01:10:14;;;;;;;12.32;3.30;;;8.60;99.90;;;;;;5026299;28;20026;-70
2024/03/26 01:12:40;;;;;;;8.55;2.90;;;8.60;99.90;;;;;;5027269;28;20052;-71
2024/03/26 01:15:06;;;;;;;8.13;2.47;;;8.50;99.90;;;;;;5025673;28;20470;-69
2024/03/26 01:17:31;;;;;;;5.53;2.55;;;8.50;99.90;;;;;;5026025;28;20534;-71
2024/03/26 01:19:57;;;;;;;9.57;2.78;;;8.50;99.90;;;;;;5026781;28;20164;-69
2024/03/26 01:22:23;;;;;;;11.60;2.88;;;8.50;99.90;;;;;;5026449;28;20021;-69
2024/03/26 01:24:49;;;;;;;7.95;2.28;;;8.50;99.90;;;;;;5027387;28;20029;-69
2024/03/26 01:27:14;;;;;;;7.82;2.85;;;8.40;99.90;;;;;;5026861;28;20096;-69
2024/03/26 01:29:40;;;;;;;8.00;2.42;;;8.40;99.90;;;;;;5026526;28;20048;-69
2024/03/26 01:32:07;;;;;;;7.25;2.72;;;8.40;99.90;;;;;;5025506;28;20479;-69
2024/03/26 01:34:33;;;;;;;11.57;2.50;;;8.40;99.90;;;;;;5026560;28;20022;-70
2024/03/26 01:36:58;;;;;;;7.07;2.58;;;8.40;99.90;;;;;;5026194;28;20079;-72
2024/03/26 01:39:24;;;;;;;10.57;3.15;;;8.30;99.90;;;;;;5026461;28;20025;-72
2024/03/26 01:41:50;;;;;;;7.85;2.85;;;8.40;99.90;;;;;;5025882;28;20471;-68
2024/03/26 01:44:15;;;;;;;11.02;2.97;;;8.30;99.90;;;;;;5025585;28;20116;-70
2024/03/26 01:46:41;;;;;;;16.08;2.65;;;8.30;99.90;;;;;;5025820;28;20648;-69
2024/03/26 01:49:09;;;;;;;7.15;2.90;;;8.30;99.90;;;;;;5027012;28;20033;-69
2024/03/26 01:51:37;;;;;;;8.93;3.03;;;8.30;99.90;;;;;;5024776;28;20163;-69
2024/03/26 01:54:04;;;;;;;9.25;2.90;;;8.40;99.90;;;;;;5026320;28;20382;-68
2024/03/26 01:56:33;;;;;;;9.40;2.90;;;8.40;99.90;;;;;;5025246;28;20468;-69
2024/03/26 01:59:00;;;;;;;8.68;2.72;;;8.30;99.90;;;;;;5025684;28;20478;-69
2024/03/26 02:01:27;;;;;;;7.65;2.75;;;8.20;99.90;;;;;;5025076;28;20022;-69
2024/03/26 02:03:54;;;;;;;7.15;2.30;;;8.30;99.90;;;;;;5026133;28;20501;-70
2024/03/26 02:06:19;;;;;;;5.93;2.75;;;8.30;99.90;;;;;;5025765;28;20563;-71
2024/03/26 02:08:46;;;;;;;7.50;2.65;;;8.20;99.90;;;;;;5025514;28;20034;-71
2024/03/26 02:11:12;;;;;;;9.88;2.67;;;8.20;99.90;;;;;;5024673;28;20029;-68
2024/03/26 02:13:37;;;;;;;8.68;2.60;;;8.20;99.90;;;;;;5025533;28;20270;-69
2024/03/26 02:16:03;;;;;;;11.70;3.10;;;8.20;99.90;;;;;;5025714;28;20437;-68
2024/03/26 02:18:29;;;;;;;9.40;2.70;;;8.20;99.90;;;;;;5025797;28;20042;-68
2024/03/26 02:20:55;;;;;;;8.43;3.05;;;8.20;99.90;;;;;;5024419;28;20474;-69
2024/03/26 02:23:23;;;;;;;7.60;1.98;;;8.20;99.90;;;;;;5025990;28;20390;-69
2024/03/26 02:25:49;;;;;;;7.15;2.30;;;8.20;99.90;;;;;;5026087;28;20026;-69
2024/03/26 02:28:15;;;;;;;8.00;2.28;;;8.10;99.90;;;;;;5025084;28;20390;-68
2024/03/26 02:30:40;;;;;;;8.07;2.78;;;8.20;99.90;;;;;;5025610;28;20021;-69
2024/03/26 02:33:06;;;;;;;7.68;2.30;;;8.10;99.90;;;;;;5024497;28;20474;-69
2024/03/26 02:35:32;;;;;;;7.75;2.70;;;8.10;99.90;;;;;;5025252;28;20072;-69
2024/03/26 02:37:58;;;;;;;10.05;2.72;;;8.10;99.90;;;;;;5025045;28;20038;-69
2024/03/26 02:40:24;;;;;;;6.90;2.80;;;8.10;99.90;;;;;;5024622;28;20075;-69
2024/03/26 02:42:50;;;;;;;8.48;2.50;;;8.00;99.90;;;;;;5024938;28;20017;-69
2024/03/26 02:45:15;;;;;;;8.10;2.55;;;8.00;99.90;;;;;;5024959;28;20017;-69
2024/03/26 02:47:41;;;;;;;7.22;2.70;;;8.00;99.90;;;;;;5025598;28;20505;-69
2024/03/26 02:50:09;;;;;;;8.98;3.28;;;7.90;99.90;;;;;;5025235;28;20029;-69
2024/03/26 02:52:35;;;;;;;8.15;2.30;;;7.90;99.90;;;;;;5019388;28;20064;-69
2024/03/26 02:55:02;;;;;;;5.07;2.47;;;7.80;99.90;;;;;;5022984;28;20112;-68
2024/03/26 02:57:27;;;;;;;9.95;2.78;;;7.80;99.90;;;;;;5017182;28;20456;-70
2024/03/26 02:59:53;;;;;;;7.38;2.35;;;7.80;99.90;;;;;;5023841;28;20509;-69
2024/03/26 03:02:20;;;;;;;7.80;2.83;;;7.80;99.90;;;;;;5023621;28;20498;-68
2024/03/26 03:04:46;;;;;;;6.85;2.22;;;7.80;99.90;;;;;;5024319;28;20013;-69
2024/03/26 03:07:12;;;;;;;6.43;2.30;;;7.70;99.90;;;;;;5023361;28;20059;-68
2024/03/26 03:09:38;;;;;;;9.10;2.72;;;7.70;99.90;;;;;;5025134;28;20490;-68
2024/03/26 03:12:04;;;;;;;6.78;2.33;;;7.70;99.90;;;;;;5024086;28;20022;-68
2024/03/26 03:14:29;;;;;;;10.90;2.40;;;7.70;99.90;;;;;;5025195;28;20508;-69
2024/03/26 03:16:55;;;;;;;6.65;2.30;;;7.60;99.90;;;;;;5023914;28;20030;-68
2024/03/26 03:19:21;;;;;;;6.00;2.67;;;7.70;99.90;;;;;;5024498;28;20486;-68
2024/03/26 03:21:46;;;;;;;6.88;2.88;;;7.70;99.90;;;;;;5023428;28;20423;-68
2024/03/26 03:24:12;;;;;;;9.18;3.00;;;7.70;99.90;;;;;;5023904;28;20543;-69
2024/03/26 03:26:38;;;;;;;7.90;2.88;;;7.70;99.90;;;;;;5022304;28;20013;-69
2024/03/26 03:29:04;;;;;;;8.73;3.08;;;7.60;99.90;;;;;;5023535;28;20030;-68
2024/03/26 03:31:30;;;;;;;4.47;2.45;;;7.60;99.90;;;;;;5024285;28;20497;-69
2024/03/26 03:33:55;;;;;;;8.82;2.72;;;7.60;99.90;;;;;;5029736;28;20040;-69
2024/03/26 03:36:21;;;;;;;9.32;3.20;;;7.60;99.90;;;;;;5002338;28;20025;-68
2024/03/26 03:38:47;;;;;;;8.70;2.80;;;7.60;99.90;;;;;;5023946;28;20034;-70
2024/03/26 03:41:13;;;;;;;7.03;2.72;;;7.60;99.90;;;;;;5024921;28;20473;-69
2024/03/26 03:43:39;;;;;;;5.63;2.80;;;7.50;99.90;;;;;;5025348;28;20627;-69
2024/03/26 03:46:04;;;;;;;6.75;2.63;;;7.50;99.90;;;;;;5027980;28;20112;-69
2024/03/26 03:48:31;;;;;;;10.10;3.13;;;7.60;99.90;;;;;;5027728;28;20087;-69
2024/03/26 03:50:56;;;;;;;8.05;2.90;;;7.60;99.90;;;;;;5029368;28;20027;-69
2024/03/26 03:53:22;;;;;;;4.78;2.97;;;7.50;99.90;;;;;;5029037;28;20029;-69
2024/03/26 03:55:48;;;;;;;10.30;4.10;;;7.50;99.90;;;;;;5027031;28;22399;-69
2024/03/26 03:58:14;;;;;;;10.07;3.20;;;7.50;99.90;;;;;;5028964;28;20123;-69
2024/03/26 04:00:40;;;;;;;8.57;2.97;;;7.50;99.90;;;;;;5029263;28;20096;-69
2024/03/26 04:03:06;;;;;;;10.00;3.38;;;7.40;99.90;;;;;;5028756;28;20075;-69
2024/03/26 04:05:35;;;;;;;8.77;3.22;;;7.40;99.90;;;;;;5029292;28;20034;-69
2024/03/26 04:08:01;;;;;;;8.55;2.92;;;7.50;99.90;;;;;;5034627;28;20474;-69
2024/03/26 04:10:27;;;;;;;7.32;2.72;;;7.50;99.90;;;;;;5033381;28;20155;-69
2024/03/26 04:12:52;;;;;;;7.95;3.20;;;7.40;99.90;;;;;;5034663;28;20104;-70
2024/03/26 04:15:18;;;;;;;6.38;2.60;;;7.40;99.90;;;;;;5033350;28;20497;-70
2024/03/26 04:17:43;;;;;;;4.43;2.42;;;7.40;99.90;;;;;;5034706;28;20517;-69
2024/03/26 04:20:10;;;;;;;7.38;3.08;;;7.40;99.90;;;;;;5035345;28;20205;-69
2024/03/26 04:22:35;;;;;;;10.32;3.38;;;7.40;99.90;;;;;;5035131;28;20033;-69
2024/03/26 04:25:01;;;;;;;5.70;2.70;;;7.50;99.90;;;;;;5038622;28;20021;-70
2024/03/26 04:27:26;;;;;;;5.45;2.67;;;7.40;99.90;;;;;;5040354;28;20475;-69
2024/03/26 04:29:52;;;;;;;7.20;3.40;;;7.40;99.90;;;;;;5035126;28;20509;-70
2024/03/26 04:32:18;;;;;;;12.18;3.17;;;7.40;99.90;;;;;;5034273;28;20029;-68
2024/03/26 04:34:43;;;;;;;6.03;3.03;;;7.40;99.90;;;;;;5034868;28;20488;-70
2024/03/26 04:37:09;;;;;;;6.03;2.85;;;7.40;99.90;;;;;;5029675;28;20014;-71
2024/03/26 04:39:35;;;;;;;4.65;2.63;;;7.40;99.90;;;;;;5033568;28;20429;-69
2024/03/26 04:42:00;;;;;;;7.15;2.75;;;7.40;99.90;;;;;;5034464;28;20788;-68
2024/03/26 04:44:26;;;;;;;9.52;4.15;;;7.50;99.90;;;;;;5034477;28;20030;-68
2024/03/26 04:46:51;;;;;;;8.93;3.03;;;7.50;99.90;;;;;;5033167;28;20367;-72
2024/03/26 04:49:17;;;;;;;5.38;3.28;;;7.30;99.90;;;;;;5032507;28;20497;-70
2024/03/26 04:51:43;;;;;;;9.55;3.20;;;7.40;99.90;;;;;;5032000;28;20538;-69
2024/03/26 04:54:08;;;;;;;6.63;3.10;;;7.50;99.90;;;;;;5032547;28;20029;-69
2024/03/26 04:56:34;;;;;;;7.05;3.22;;;7.50;99.90;;;;;;5033134;28;20478;-71
2024/03/26 04:59:00;;;;;;;7.15;3.38;;;7.50;99.90;;;;;;5033043;28;20033;-68
2024/03/26 05:01:25;;;;;;;8.80;3.30;;;7.50;99.90;;;;;;5033122;28;20451;-70
2024/03/26 05:03:51;;;;;;;6.90;2.60;;;7.50;99.90;;;;;;5033054;28;20623;-69
2024/03/26 05:06:17;;;;;;;7.72;2.80;;;7.40;99.90;;;;;;5033375;28;20470;-69
2024/03/26 05:08:42;;;;;;;7.82;3.28;;;7.50;99.90;;;;;;5031007;28;20104;-68
2024/03/26 05:11:08;;;;;;;6.43;2.92;;;7.40;99.90;;;;;;5033348;28;20108;-69
2024/03/26 05:13:34;;;;;;;5.07;3.58;;;7.40;99.90;;;;;;5032464;28;20156;-68
2024/03/26 05:15:59;;;;;;;6.50;3.10;;;7.40;99.90;;;;;;5033006;28;20087;-68
2024/03/26 05:18:25;;;;;;;10.55;3.50;;;7.40;99.90;;;;;;5032918;28;20423;-71
2024/03/26 05:20:52;;;;;;;7.50;3.33;;;7.50;99.90;;;;;;5033278;28;20429;-70
2024/03/26 05:23:18;;;;;;;5.82;3.75;;;7.50;99.90;;;;;;5032539;28;20030;-69
2024/03/26 05:25:44;;;;;;;6.25;3.67;;;7.50;99.90;;;;;;5043499;28;20021;-72
2024/03/26 05:28:10;;;;;;;7.75;3.50;;;7.50;99.90;;;;;;5034221;28;20036;-69
2024/03/26 05:30:38;;;;;;;6.53;3.28;;;7.50;99.90;;;;;;5033091;28;20024;-69
2024/03/26 05:33:04;;;;;;;4.93;2.97;;;7.40;99.90;;;;;;5032733;28;20036;-68
2024/03/26 05:35:30;;;;;;;6.90;3.20;;;7.40;99.90;;;;;;5032436;28;20371;-68
2024/03/26 05:37:58;;;;;;;11.07;3.53;;;7.40;99.90;;;;;;5031070;28;20116;-68
2024/03/26 05:40:24;;;;;;;13.82;4.18;;;7.50;99.90;;;;;;5032554;28;20079;-69
2024/03/26 05:42:50;;;;;;;9.52;3.83;;;7.50;99.90;;;;;;5022746;28;20430;-69
2024/03/26 05:45:15;;;;;;;6.18;2.75;;;7.50;99.90;;;;;;5032034;28;20026;-70
2024/03/26 05:47:41;;;;;;;6.13;2.80;;;7.50;99.90;;;;;;4991437;28;1209064;-69
2024/03/26 05:50:07;;;;;;;6.70;3.05;;;7.50;99.90;;;;;;5033390;28;20465;-69
2024/03/26 05:52:33;;;;;;;6.85;3.70;;;7.50;99.90;;;;;;5032385;28;20029;-69
2024/03/26 05:54:59;;;;;;;7.47;3.08;;;7.40;99.90;;;;;;5033395;28;20017;-68
2024/03/26 05:57:25;;;;;;;9.95;2.70;;;7.40;99.90;;;;;;5027914;28;20038;-68
2024/03/26 05:59:51;;;;;;;7.95;3.00;;;7.40;99.90;;;;;;5030861;28;20470;-69
2024/03/26 06:02:16;;;;;;;10.45;3.15;;;7.50;99.90;;;;;;5033444;28;20037;-68
2024/03/26 06:04:42;;;;;;;2.80;2.50;;;7.50;99.90;;;;;;5033255;28;20100;-69
2024/03/26 06:07:08;;;;;;;5.50;2.92;;;7.50;99.90;;;;;;5032178;28;20057;-69
2024/03/26 06:09:34;;;;;;;7.80;3.00;;;7.50;99.90;;;;;;5031860;28;20387;-69
2024/03/26 06:11:59;;;;;;;10.90;3.42;;;7.50;99.90;;;;;;5033155;28;20033;-69
2024/03/26 06:14:25;;;;;;;9.20;2.90;;;7.60;99.90;;;;;;5031918;28;20029;-69
2024/03/26 06:16:51;;;;;;;8.02;3.60;;;7.50;99.90;;;;;;5033023;28;20028;-69
2024/03/26 06:19:17;;;;;;;4.85;2.78;;;7.60;99.90;;;;;;5032631;28;20503;-68
2024/03/26 06:21:43;;;;;;;8.45;3.10;;;7.60;99.90;;;;;;5031205;28;20048;-69
2024/03/26 06:24:10;;;;;;;8.85;3.88;;;7.70;99.90;;;;;;5029717;28;20057;-69
2024/03/26 06:26:36;;;;;;;6.95;3.20;;;7.60;99.90;;;;;;5040284;28;20021;-68
2024/03/26 06:29:02;;;;;;;9.52;3.15;;;7.70;99.90;;;;;;5030380;28;20018;-68
2024/03/26 06:31:28;;;;;;;6.07;3.10;;;7.70;99.90;;;;;;5032497;28;20116;-68
2024/03/26 06:33:54;;;;;;;5.40;3.50;;;7.70;99.90;;;;;;5032517;28;20112;-68
2024/03/26 06:36:20;;;;;;;8.63;3.55;;;7.80;99.90;;;;;;5032699;28;20036;-68
2024/03/26 06:38:45;;;;;;;5.43;3.00;;;7.80;99.90;;;;;;5032773;28;20033;-68
2024/03/26 06:41:11;;;;;;;8.82;3.67;;;7.80;99.90;;;;;;5031928;28;20104;-69
2024/03/26 06:43:37;;;;;;;5.60;3.28;;;7.70;99.90;;;;;;5031168;28;20025;-68
2024/03/26 06:46:04;;;;;;;7.13;3.38;;;7.80;99.90;;;;;;5032130;28;20063;-69
2024/03/26 06:48:29;;;;;;;8.27;3.72;;;7.80;99.90;;;;;;5032203;28;20025;-68
2024/03/26 06:50:55;;;;;;;8.35;3.45;;;7.80;99.90;;;;;;5031069;28;20501;-68
2024/03/26 06:53:21;;;;;;;10.85;4.65;;;7.90;99.90;;;;;;5030866;28;20433;-68
2024/03/26 06:55:46;;;;;;;7.53;4.38;;;8.00;99.90;;;;;;5030232;28;20104;-68
2024/03/26 06:58:12;;;;;;;7.82;3.58;;;8.10;99.90;;;;;;5030904;28;20075;-69
2024/03/26 07:00:38;;;;;;;9.07;3.70;;;8.10;99.90;;;;;;5028134;28;20037;-68
2024/03/26 07:03:04;;;;;;;10.48;3.95;;;8.10;99.90;;;;;;5030847;28;20389;-68
2024/03/26 07:05:30;;;;;;;7.57;3.72;;;8.20;99.90;;;;;;5031975;28;20021;-69
2024/03/26 07:07:56;;;;;;;8.88;3.83;;;8.20;99.90;;;;;;5032088;28;20025;-71
2024/03/26 07:10:21;;;;;;;9.23;3.70;;;8.20;99.90;;;;;;5031641;28;20030;-68
2024/03/26 07:12:47;;;;;;;5.80;3.45;;;8.30;99.90;;;;;;5024017;28;20079;-68
2024/03/26 07:15:24;;;;;;;9.32;3.90;;;8.30;99.90;;;;;;5030016;28;20056;-70
2024/03/26 07:17:50;;;;;;;6.45;3.25;;;8.30;99.90;;;;;;5023926;28;20061;-69
2024/03/26 07:20:15;;;;;;;4.93;3.08;;;8.30;99.90;;;;;;5031773;28;20505;-70
2024/03/26 07:22:41;;;;;;;10.70;3.88;;;8.40;99.90;;;;;;5029647;28;20060;-71
2024/03/26 07:25:08;;;;;;;6.00;2.88;;;8.50;99.90;;;;;;5035470;28;20013;-69
2024/03/26 07:27:34;;;;;;;10.82;3.30;;;8.50;99.90;;;;;;5034364;28;20454;-70
2024/03/26 07:30:04;;;;;;;8.38;3.63;;;8.60;99.90;;;;;;5030230;28;20402;-69
2024/03/26 07:32:29;;;;;;;6.35;3.53;;;8.50;99.90;;;;;;5018754;28;20104;-69
2024/03/26 07:34:55;;;;;;;9.60;3.75;;;8.60;99.90;;;;;;5031326;28;20148;-69
2024/03/26 07:37:21;;;;;;;7.10;3.80;;;8.60;99.90;;;;;;5030037;28;20622;-71
2024/03/26 07:39:47;;;;;;;8.38;3.60;;;8.60;99.90;;;;;;5031607;28;20110;-71
2024/03/26 07:42:12;;;;;;;6.18;4.32;;;8.70;99.90;;;;;;5025575;28;20026;-71
2024/03/26 07:44:40;;;;;;;8.57;3.50;;;8.60;99.90;;;;;;5030109;28;20116;-72
2024/03/26 07:47:06;;;;;;;5.82;3.28;;;8.60;99.90;;;;;;5029693;28;20033;-71
2024/03/26 07:49:32;;;;;;;6.30;3.60;;;8.60;99.90;;;;;;5031093;28;20040;-70
2024/03/26 07:51:58;;;;;;;7.00;3.97;;;8.80;99.90;;;;;;5031456;28;20089;-71
2024/03/26 07:54:24;;;;;;;7.60;3.67;;;8.80;99.90;;;;;;5019177;28;20398;-71
2024/03/26 07:56:49;;;;;;;7.20;4.13;;;8.90;99.90;;;;;;5025874;28;20450;-71
2024/03/26 07:59:15;;;;;;;8.68;3.83;;;9.00;99.90;;;;;;5028204;28;20765;-72
2024/03/26 08:01:41;;;;;;;7.00;3.50;;;9.00;99.90;;;;;;5029185;28;20029;-69
2024/03/26 08:04:06;;;;;;;8.70;3.33;;;9.00;99.90;;;;;;5030554;28;20040;-71
2024/03/26 08:06:32;;;;;;;6.05;3.45;;;9.00;99.90;;;;;;5028150;28;20741;-70
2024/03/26 08:08:58;;;;;;;7.30;3.95;;;9.10;99.90;;;;;;5028597;28;20033;-69
2024/03/26 08:11:23;;;;;;;6.90;3.42;;;9.10;99.90;;;;;;5027777;28;20032;-70
2024/03/26 08:13:49;;;;;;;5.47;3.35;;;9.20;99.90;;;;;;5018708;28;20455;-71
2024/03/26 08:16:15;;;;;;;7.72;4.20;;;9.20;99.90;;;;;;5028963;28;20021;-70
2024/03/26 08:18:40;;;;;;;6.47;3.70;;;9.20;99.90;;;;;;5029880;28;20414;-70
2024/03/26 08:21:06;;;;;;;6.00;3.53;;;9.30;99.90;;;;;;5030722;28;20026;-70
2024/03/26 08:23:32;;;;;;;5.72;3.42;;;9.40;99.90;;;;;;5030876;28;20037;-70
2024/03/26 08:25:58;;;;;;;6.70;3.67;;;9.40;99.90;;;;;;5037839;28;20024;-70
2024/03/26 08:28:25;;;;;;;6.68;3.60;;;9.50;99.90;;;;;;5030029;28;20029;-71
2024/03/26 08:30:50;;;;;;;5.65;3.42;;;9.50;99.90;;;;;;5033305;28;20016;-70
2024/03/26 08:33:21;;;;;;;8.95;3.65;;;9.50;99.90;;;;;;5028951;28;20029;-70
2024/03/26 08:35:47;;;;;;;6.60;3.55;;;9.50;99.90;;;;;;5033205;28;20111;-70
2024/03/26 08:38:13;;;;;;;7.05;3.50;;;9.60;99.90;;;;;;5034026;28;20076;-71
2024/03/26 08:40:40;;;;;;;6.00;3.78;;;9.60;99.90;;;;;;5034621;28;20123;-71
2024/03/26 08:43:06;;;;;;;4.50;3.10;;;9.60;99.90;;;;;;5033156;28;20029;-70
2024/03/26 08:45:32;;;;;;;6.82;3.35;;;9.60;99.90;;;;;;5033235;28;20025;-70
2024/03/26 08:47:59;;;;;;;5.32;3.13;;;9.60;99.90;;;;;;5033829;28;20026;-70
2024/03/26 08:50:24;;;;;;;7.72;3.75;;;9.60;99.90;;;;;;5033163;28;20462;-70
2024/03/26 08:52:50;;;;;;;7.45;3.50;;;9.70;99.90;;;;;;5034018;28;20029;-69
2024/03/26 08:55:16;;;;;;;6.57;3.15;;;9.80;99.90;;;;;;5034166;28;20025;-70
2024/03/26 08:57:41;;;;;;;7.10;2.90;;;9.80;99.90;;;;;;5032664;28;20157;-70
2024/03/26 09:00:10;;;;;;;6.00;2.95;;;9.90;99.90;;;;;;5034053;28;20386;-70
2024/03/26 09:02:36;;;;;;;7.93;3.22;;;9.90;99.90;;;;;;5024787;28;20028;-70
2024/03/26 09:05:03;;;;;;;9.60;3.38;;;9.80;99.90;;;;;;5021600;28;20018;-70
2024/03/26 09:07:29;;;;;;;13.48;3.72;;;10.00;99.90;;;;;;5033498;28;20034;-70
2024/03/26 09:09:55;;;;;;;5.93;3.25;;;10.00;99.90;;;;;;5033817;28;20434;-70
2024/03/26 09:12:20;;;;;;;10.15;3.00;;;10.10;99.90;;;;;;5033652;28;20040;-70
2024/03/26 09:14:46;;;;;;;7.30;3.25;;;10.10;99.90;;;;;;5033050;28;20018;-69
2024/03/26 09:17:12;;;;;;;6.75;3.33;;;10.10;99.90;;;;;;5026127;28;20029;-70
2024/03/26 09:19:38;;;;;;;5.57;3.45;;;10.10;99.90;;;;;;5033436;28;20042;-69
2024/03/26 09:22:04;;;;;;;5.53;3.28;;;10.20;99.90;;;;;;5031400;28;20117;-70
2024/03/26 09:24:30;;;;;;;7.13;3.20;;;10.30;99.90;;;;;;5025764;28;20044;-70
2024/03/26 09:26:55;;;;;;;6.03;3.53;;;10.40;99.90;;;;;;5030809;28;20096;-70
2024/03/26 09:29:21;;;;;;;3.35;2.80;;;10.50;99.90;;;;;;5031014;28;20478;-70
2024/03/26 09:31:47;;;;;;;7.00;4.10;;;10.50;99.90;;;;;;5031230;28;20037;-70
2024/03/26 09:34:12;;;;;;;7.53;3.45;;;10.40;99.90;;;;;;5030750;28;20026;-70
2024/03/26 09:36:38;;;;;;;5.25;2.80;;;10.60;99.90;;;;;;5031673;28;20037;-70
2024/03/26 09:39:04;;;;;;;8.95;3.25;;;10.60;99.90;;;;;;5031454;28;20598;-70
2024/03/26 09:41:30;;;;;;;6.85;3.30;;;10.60;99.90;;;;;;5030343;28;20120;-70
2024/03/26 09:43:56;;;;;;;8.50;3.28;;;10.70;99.90;;;;;;5031113;28;20051;-70
2024/03/26 09:46:23;;;;;;;7.25;3.20;;;10.70;99.90;;;;;;5031039;28;20029;-71
2024/03/26 09:48:49;;;;;;;6.03;3.47;;;10.80;99.90;;;;;;5030605;28;20040;-70
2024/03/26 09:51:18;;;;;;;5.22;3.20;;;10.80;99.90;;;;;;5031532;28;20017;-70
2024/03/26 09:53:44;;;;;;;6.40;3.40;;;10.90;99.90;;;;;;5032833;28;20027;-70
2024/03/26 09:56:12;;;;;;;3.83;3.22;;;11.00;99.90;;;;;;5031262;28;20025;-70
2024/03/26 09:58:38;;;;;;;7.07;3.13;;;11.10;99.90;;;;;;5030823;28;20128;-69
2024/03/26 10:01:03;;;;;;;8.25;3.33;;;11.10;99.90;;;;;;5032011;28;20503;-70
2024/03/26 10:03:32;;;;;;;6.20;2.92;;;11.10;99.90;;;;;;5032779;28;20112;-71
2024/03/26 10:05:59;;;;;;;8.63;3.67;;;11.20;99.90;;;;;;5027784;28;20025;-69
2024/03/26 10:08:26;;;;;;;7.45;3.30;;;11.20;99.90;;;;;;5031515;28;20159;-70
2024/03/26 10:10:51;;;;;;;9.68;3.42;;;11.20;99.90;;;;;;5032567;28;20021;-70
2024/03/26 10:13:17;;;;;;;7.80;3.40;;;11.20;99.90;;;;;;5032448;28;20543;-71
2024/03/26 10:15:45;;;;;;;8.13;3.40;;;11.30;99.90;;;;;;5030819;28;20021;-70
2024/03/26 10:18:12;;;;;;;6.47;3.13;;;11.40;99.90;;;;;;5032474;28;20100;-70
2024/03/26 10:20:38;;;;;;;8.02;3.40;;;11.40;99.90;;;;;;5032639;28;20056;-70
2024/03/26 10:23:05;;;;;;;11.20;3.90;;;11.50;99.90;;;;;;5032602;28;20021;-70
2024/03/26 10:25:31;;;;;;;6.95;4.00;;;11.40;99.90;;;;;;5021942;28;20029;-71
2024/03/26 10:27:57;;;;;;;7.15;3.50;;;11.50;99.90;;;;;;5031743;28;20033;-70
2024/03/26 10:30:24;;;;;;;7.82;3.53;;;11.60;99.90;;;;;;5031087;28;20402;-71
2024/03/26 10:32:58;;;;;;;10.35;3.58;;;11.60;99.90;;;;;;5032668;28;20022;-71
2024/03/26 10:35:25;;;;;;;8.00;3.30;;;11.60;99.90;;;;;;5025127;28;20025;-70
2024/03/26 10:37:53;;;;;;;7.32;3.47;;;11.70;99.90;;;;;;5030175;28;20478;-71
2024/03/26 10:40:31;;;;;;;6.93;3.85;;;11.70;99.90;;;;;;5031762;28;20025;-71
2024/03/26 10:43:01;;;;;;;6.53;3.33;;;11.70;99.90;;;;;;5025493;28;20032;-71
2024/03/26 10:45:27;;;;;;;7.80;3.72;;;11.80;99.90;;;;;;5030915;28;20493;-70
2024/03/26 10:47:56;;;;;;;8.30;3.65;;;11.80;99.90;;;;;;5030335;28;20061;-70
2024/03/26 10:50:25;;;;;;;7.20;3.47;;;11.80;99.90;;;;;;5031653;28;20025;-71
2024/03/26 10:52:51;;;;;;;6.18;3.55;;;11.80;99.90;;;;;;5031059;28;20055;-71
2024/03/26 10:55:18;;;;;;;5.53;3.28;;;11.80;99.90;;;;;;5031954;28;20096;-72
2024/03/26 10:57:45;;;;;;;6.72;3.50;;;11.90;99.90;;;;;;5029575;28;20029;-71
2024/03/26 11:00:13;;;;;;;8.80;3.55;;;11.90;99.90;;;;;;5029403;28;20052;-71
2024/03/26 11:02:43;;;;;;;7.15;3.78;;;12.00;99.90;;;;;;5019174;28;20033;-71
2024/03/26 11:05:08;;;;;;;6.93;4.38;;;12.00;99.90;;;;;;5016275;28;20093;-71
2024/03/26 11:07:37;;;;;;;9.68;4.82;;;12.10;99.90;;;;;;5020640;28;20121;-71
2024/03/26 11:10:09;;;;;;;7.63;3.60;;;12.20;99.90;;;;;;5009583;28;20548;-72
2024/03/26 11:12:36;;;;;;;7.63;3.83;;;12.10;99.90;;;;;;5018475;28;20470;-71
2024/03/26 11:15:14;;;;;;;15.45;4.30;;;12.20;99.90;;;;;;5029940;28;20018;-71
2024/03/26 11:17:56;;;;;;;7.50;3.90;;;12.30;99.90;;;;;;5027588;28;20057;-72
2024/03/26 11:20:29;;;;;;;6.80;4.00;;;12.40;99.90;;;;;;5011172;28;20061;-71
2024/03/26 11:23:03;;;;;;;9.13;3.50;;;12.50;99.90;;;;;;5028527;28;20062;-72
2024/03/26 11:25:30;;;;;;;6.07;3.88;;;12.50;99.90;;;;;;5029738;28;20063;-72
2024/03/26 11:27:58;;;;;;;9.40;4.20;;;12.60;99.90;;;;;;5012397;28;20058;-72
2024/03/26 11:30:35;;;;;;;6.60;4.20;;;12.70;99.90;;;;;;5021943;28;20022;-72
2024/03/26 11:33:01;;;;;;;8.98;4.15;;;12.70;99.90;;;;;;5018594;28;20060;-72
2024/03/26 11:35:29;;;;;;;9.52;4.10;;;12.80;99.90;;;;;;5028919;28;20092;-72
2024/03/26 11:37:58;;;;;;;4.53;3.42;;;12.90;99.90;;;;;;5026766;28;20030;-72
2024/03/26 11:40:25;;;;;;;8.05;3.80;;;13.00;99.90;;;;;;5018434;28;20409;-72
2024/03/26 11:42:54;;;;;;;8.68;4.20;;;13.00;99.90;;;;;;5028728;28;20466;-72
2024/03/26 11:45:20;;;;;;;8.85;4.07;;;13.20;99.90;;;;;;5024673;28;20113;-72
2024/03/26 11:47:46;;;;;;;10.63;4.32;;;13.20;99.90;;;;;;5023849;28;20502;-72
2024/03/26 11:50:12;;;;;;;7.07;3.70;;;13.30;99.90;;;;;;5011439;28;20161;-72
2024/03/26 11:52:38;;;;;;;6.97;4.10;;;13.20;99.90;;;;;;5024216;28;20095;-71
2024/03/26 11:55:06;;;;;;;9.10;4.32;;;13.40;99.90;;;;;;5029074;28;20030;-72
2024/03/26 11:57:32;;;;;;;6.45;4.03;;;13.30;99.90;;;;;;5016282;28;20374;-72
2024/03/26 11:59:58;;;;;;;10.02;4.18;;;13.40;99.90;;;;;;5015685;28;20022;-72
2024/03/26 12:02:28;;;;;;;7.22;3.92;;;13.40;99.90;;;;;;5029044;28;20100;-72
2024/03/26 12:04:54;;;;;;;7.20;4.03;;;13.50;99.90;;;;;;5031109;28;20033;-72
2024/03/26 12:07:23;;;;;;;9.48;4.18;;;13.60;99.90;;;;;;5033135;28;20037;-72
2024/03/26 12:09:49;;;;;;;61.83;7.50;;;13.70;99.90;;;;;;5033247;28;20425;-72
2024/03/26 12:12:16;;;;;;;7.28;4.13;;;14.00;99.90;;;;;;5032816;28;20017;-72
2024/03/26 12:14:41;;;;;;;8.60;4.72;;;14.10;99.90;;;;;;5014333;28;20029;-72
2024/03/26 12:17:08;;;;;;;8.15;4.20;;;14.30;99.90;;;;;;5017659;28;20413;-72
2024/03/26 12:19:35;;;;;;;13.98;4.65;;;14.50;99.90;;;;;;5017277;28;20038;-72
2024/03/26 12:22:11;;;;;;;8.32;4.00;;;14.40;99.90;;;;;;5019192;28;20024;-73
2024/03/26 12:24:38;;;;;;;10.57;3.97;;;14.50;99.90;;;;;;5018782;28;20032;-72
2024/03/26 12:27:05;;;;;;;11.07;5.07;;;14.40;99.90;;;;;;5026717;28;20029;-72
2024/03/26 12:29:32;;;;;;;10.02;3.85;;;14.40;99.90;;;;;;5021207;28;20037;-72
2024/03/26 12:31:58;;;;;;;8.65;3.63;;;14.40;99.90;;;;;;5034454;28;20022;-73
2024/03/26 12:34:27;;;;;;;6.82;3.75;;;14.40;99.90;;;;;;5027576;28;20025;-72
2024/03/26 12:36:53;;;;;;;6.43;3.85;;;14.30;99.90;;;;;;5033843;28;20064;-73
2024/03/26 12:39:20;;;;;;;8.70;4.10;;;14.50;99.90;;;;;;5034415;28;20037;-73
2024/03/26 12:41:46;;;;;;;5.72;3.90;;;14.40;99.90;;;;;;5034221;28;20029;-73
2024/03/26 12:44:13;;;;;;;7.43;3.47;;;14.60;99.90;;;;;;5034245;28;20458;-73
2024/03/26 12:46:39;;;;;;;8.73;4.00;;;14.70;99.90;;;;;;5031862;28;20032;-73
2024/03/26 12:49:05;;;;;;;11.10;3.90;;;14.80;99.90;;;;;;5030174;28;20502;-72